Gardner, Kansas
Current Conditions -  °F | °C
As of 2:53 PM on Friday 19 Dec 2014 (Local Time) from KIXD Reporting Station
Overcast Overcast  
Wind Chill: 33°   Ceiling: 800
Heat Index: 33°   Visibility: 7mi
Dew Point: 30°   Wind: 0mph
Humidity: 89%   Direction: NA
Pressure: 30.21"   Gusts: NA
Location:  38.81°N, 94.93°W
Report Text: KIXD 192053Z 00000KT 7SM OVC008 01/M01 A3021 RMK AO2 SLP237 60000 T00061011 56018
Loading
Personal Weather Stations






























Interactive Weather Map New forecast layout! Learn more

10-Day Weather Forecast

Advertisements
Track Severe Weather on mobile